Time;durP1;ratioP1;P1;durP2;ratioP2;P2;SDS_P1;SDS_P2;PMS_P1;PMS_P2;Temp;Humidity;BMP_temperature;BMP_pressure;BME280_temperature;BME280_humidity;BME280_pressure;Samples;Min_cycle;Max_cycle;Signal;HPM_P1;HPM_P2
2021/05/08 00:01:50;;;;;;;5.70;4.00;;;3.30;99.50;;;;;;6248316;28;20120;-76
2021/05/08 00:04:51;;;;;;;13.50;5.53;;;3.30;99.90;;;;;;6248453;28;20128;-76
2021/05/08 00:07:54;;;;;;;4.73;4.33;;;3.30;99.90;;;;;;6247996;28;20132;-75
2021/05/08 00:10:55;;;;;;;4.97;4.27;;;3.30;99.90;;;;;;6248869;28;20080;-75
2021/05/08 00:13:56;;;;;;;6.00;5.47;;;3.20;99.90;;;;;;6247904;28;20050;-76
2021/05/08 00:16:58;;;;;;;4.77;4.17;;;3.10;99.90;;;;;;6250368;28;20124;-75
2021/05/08 00:19:59;;;;;;;5.87;5.37;;;3.10;99.90;;;;;;6247393;28;20108;-75
2021/05/08 00:23:01;;;;;;;7.20;5.03;;;3.10;99.90;;;;;;6226877;28;20060;-76
2021/05/08 00:26:03;;;;;;;6.20;5.60;;;3.10;99.90;;;;;;6222855;28;20096;-75
2021/05/08 00:29:04;;;;;;;6.83;4.40;;;3.00;99.90;;;;;;6211859;28;20050;-75
2021/05/08 00:32:06;;;;;;;5.80;5.30;;;3.00;99.90;;;;;;6198555;28;20161;-75
2021/05/08 00:35:08;;;;;;;4.47;4.13;;;3.00;99.90;;;;;;6198751;28;20555;-75
2021/05/08 00:38:10;;;;;;;3.80;3.50;;;2.90;99.90;;;;;;6197595;28;20119;-76
2021/05/08 00:41:11;;;;;;;5.23;4.70;;;2.90;99.90;;;;;;6209730;28;20132;-76
2021/05/08 00:44:14;;;;;;;7.13;4.23;;;2.80;99.90;;;;;;6222642;28;20160;-75
2021/05/08 00:47:15;;;;;;;5.30;4.87;;;2.80;99.90;;;;;;6223111;28;20050;-75
2021/05/08 00:50:19;;;;;;;9.53;4.50;;;2.80;99.90;;;;;;6201971;28;20074;-76
2021/05/08 00:53:21;;;;;;;4.53;4.00;;;2.70;99.90;;;;;;6216437;28;20129;-76
2021/05/08 00:56:23;;;;;;;7.07;6.10;;;2.70;99.90;;;;;;6223463;28;20116;-76
2021/05/08 00:59:24;;;;;;;5.97;4.93;;;2.70;99.90;;;;;;6222339;28;20138;-76
2021/05/08 01:02:26;;;;;;;10.63;4.20;;;2.70;99.90;;;;;;6222668;28;20115;-75
2021/05/08 01:05:32;;;;;;;7.77;4.30;;;2.60;99.90;;;;;;6221845;28;20124;-75
2021/05/08 01:08:34;;;;;;;9.03;4.33;;;2.60;99.90;;;;;;6222294;28;20100;-75
2021/05/08 01:11:37;;;;;;;5.30;4.00;;;2.60;99.90;;;;;;6222312;28;20093;-76
2021/05/08 01:14:38;;;;;;;4.40;4.00;;;2.50;99.90;;;;;;6222188;28;20041;-76
2021/05/08 01:17:40;;;;;;;5.07;4.53;;;2.40;99.90;;;;;;6222081;28;20120;-76
2021/05/08 01:20:42;;;;;;;4.97;4.57;;;2.40;99.90;;;;;;6221754;28;20073;-76
2021/05/08 01:23:45;;;;;;;9.53;5.93;;;2.40;99.90;;;;;;6222438;28;20137;-75
2021/05/08 01:26:46;;;;;;;4.93;4.43;;;2.40;99.90;;;;;;6222265;28;20084;-75
2021/05/08 01:29:47;;;;;;;4.57;4.17;;;2.40;99.90;;;;;;6221961;28;20050;-75
2021/05/08 01:32:49;;;;;;;5.10;4.30;;;2.30;99.90;;;;;;6221882;28;20061;-75
2021/05/08 01:35:50;;;;;;;5.17;4.07;;;2.30;99.90;;;;;;6222085;28;20137;-76
2021/05/08 01:38:53;;;;;;;5.47;4.93;;;2.30;99.90;;;;;;6221833;28;20515;-76
2021/05/08 01:41:54;;;;;;;6.93;4.83;;;2.20;99.90;;;;;;6243868;28;20037;-75
2021/05/08 01:44:56;;;;;;;4.97;4.43;;;2.20;99.90;;;;;;6230257;28;20073;-76
2021/05/08 01:47:59;;;;;;;6.60;5.00;;;2.20;99.90;;;;;;6221740;28;20543;-76
2021/05/08 01:51:01;;;;;;;5.53;4.73;;;2.10;99.90;;;;;;6224416;28;20136;-75
2021/05/08 01:54:03;;;;;;;5.23;4.30;;;2.10;99.90;;;;;;6233873;28;20095;-75
2021/05/08 01:57:05;;;;;;;5.13;4.70;;;2.10;99.90;;;;;;6228887;28;20132;-75
2021/05/08 02:00:10;;;;;;;7.13;4.20;;;2.00;99.90;;;;;;6226359;28;20069;-76
2021/05/08 02:03:13;;;;;;;4.50;3.97;;;1.90;99.90;;;;;;6226890;28;20129;-76
2021/05/08 02:06:14;;;;;;;6.30;4.90;;;1.90;99.90;;;;;;6226384;28;20056;-76
2021/05/08 02:09:16;;;;;;;4.37;3.67;;;1.80;99.90;;;;;;6226144;28;20076;-76
2021/05/08 02:12:17;;;;;;;7.43;4.23;;;1.70;99.90;;;;;;6226103;28;20097;-76
2021/05/08 02:15:19;;;;;;;4.53;4.00;;;1.70;99.90;;;;;;6226961;28;20124;-76
2021/05/08 02:18:21;;;;;;;6.40;4.53;;;1.60;99.90;;;;;;6225774;28;20134;-76
2021/05/08 02:21:22;;;;;;;4.73;4.33;;;1.60;99.90;;;;;;6225863;28;20077;-76
2021/05/08 02:24:24;;;;;;;3.90;3.60;;;1.60;99.90;;;;;;6225614;28;20076;-76
2021/05/08 02:27:26;;;;;;;7.60;4.53;;;1.70;99.90;;;;;;6226120;28;20557;-75
2021/05/08 02:30:29;;;;;;;6.30;4.53;;;1.60;99.90;;;;;;6225170;28;20054;-75
2021/05/08 02:33:30;;;;;;;6.40;4.37;;;1.60;99.90;;;;;;6225656;28;20124;-76
2021/05/08 02:36:32;;;;;;;6.30;5.27;;;1.60;99.90;;;;;;6225865;28;20059;-76
2021/05/08 02:39:34;;;;;;;6.40;5.80;;;1.70;99.90;;;;;;6225449;28;20141;-76
2021/05/08 02:42:35;;;;;;;5.50;4.37;;;1.70;99.90;;;;;;6225610;28;20053;-76
2021/05/08 02:45:37;;;;;;;5.60;5.10;;;1.60;99.90;;;;;;6225143;28;20125;-76
2021/05/08 02:48:38;;;;;;;6.73;4.60;;;1.60;99.90;;;;;;6225341;28;20130;-76
2021/05/08 02:51:39;;;;;;;6.37;4.93;;;1.60;99.90;;;;;;6225301;28;20484;-76
2021/05/08 02:54:41;;;;;;;6.87;4.60;;;1.60;99.90;;;;;;6230005;28;20065;-76
2021/05/08 02:57:43;;;;;;;5.37;4.47;;;1.60;99.90;;;;;;6245185;28;20053;-76
2021/05/08 03:00:44;;;;;;;4.97;4.47;;;1.60;99.90;;;;;;6249173;28;20419;-75
2021/05/08 03:03:46;;;;;;;5.77;4.43;;;1.60;99.90;;;;;;6248542;28;20056;-75
2021/05/08 03:06:47;;;;;;;5.27;4.30;;;1.50;99.90;;;;;;6250045;28;20102;-76
2021/05/08 03:09:49;;;;;;;5.13;4.63;;;1.50;99.90;;;;;;6248983;28;20127;-76
2021/05/08 03:12:50;;;;;;;5.50;4.90;;;1.40;99.90;;;;;;6249396;28;20064;-75
2021/05/08 03:15:52;;;;;;;6.00;5.30;;;1.30;99.90;;;;;;6249335;28;20075;-76
2021/05/08 03:18:53;;;;;;;8.37;5.87;;;1.30;99.90;;;;;;6249106;28;20081;-76
2021/05/08 03:21:54;;;;;;;5.13;4.60;;;1.30;99.90;;;;;;6249302;28;20055;-75
2021/05/08 03:24:57;;;;;;;5.10;4.60;;;1.30;99.90;;;;;;6248756;28;20065;-76
2021/05/08 03:27:58;;;;;;;6.30;5.63;;;1.30;99.90;;;;;;6249249;28;20049;-75
2021/05/08 03:30:59;;;;;;;5.80;5.20;;;1.20;99.90;;;;;;6307200;22;20125;-77
2021/05/08 03:34:01;;;;;;;6.63;4.67;;;1.20;99.90;;;;;;6301685;28;20131;-79
2021/05/08 03:37:02;;;;;;;5.20;4.57;;;1.20;99.90;;;;;;6301345;28;20572;-78
2021/05/08 03:40:06;;;;;;;4.87;4.47;;;1.30;99.90;;;;;;6302687;28;20078;-78
2021/05/08 03:43:07;;;;;;;6.63;4.33;;;1.20;99.90;;;;;;6302102;28;20131;-79
2021/05/08 03:46:08;;;;;;;7.43;6.57;;;1.20;99.90;;;;;;6301307;28;20047;-77
2021/05/08 03:49:09;;;;;;;6.07;5.43;;;1.10;99.90;;;;;;6302072;28;20183;-77
2021/05/08 03:52:11;;;;;;;6.37;5.60;;;1.10;99.90;;;;;;6300671;28;20516;-78
2021/05/08 03:55:13;;;;;;;7.40;5.63;;;1.10;99.90;;;;;;6300458;28;20786;-78
2021/05/08 03:58:14;;;;;;;7.93;5.33;;;1.10;99.90;;;;;;6280933;28;20481;-77
2021/05/08 04:01:16;;;;;;;5.57;5.07;;;1.10;99.90;;;;;;6275846;28;20128;-78
2021/05/08 04:04:17;;;;;;;6.40;4.40;;;1.10;99.90;;;;;;6276737;28;20068;-78
2021/05/08 04:07:18;;;;;;;5.70;4.93;;;1.10;99.90;;;;;;6276959;28;20049;-78
2021/05/08 04:10:22;;;;;;;5.57;5.07;;;1.00;99.90;;;;;;6292103;28;20098;-79
2021/05/08 04:13:23;;;;;;;5.40;4.87;;;1.10;99.90;;;;;;6312548;28;20100;-77
2021/05/08 04:16:24;;;;;;;6.77;5.40;;;1.10;99.90;;;;;;6322552;28;20045;-76
2021/05/08 04:19:26;;;;;;;5.87;4.93;;;1.10;99.90;;;;;;6320118;28;20513;-76
2021/05/08 04:22:27;;;;;;;7.53;5.13;;;1.20;99.90;;;;;;6323612;28;20041;-77
2021/05/08 04:25:29;;;;;;;7.00;5.67;;;1.20;99.90;;;;;;6321410;28;20051;-77
2021/05/08 04:28:30;;;;;;;6.80;5.37;;;1.30;99.90;;;;;;6318523;28;20456;-78
2021/05/08 04:31:33;;;;;;;7.20;4.80;;;1.40;99.90;;;;;;6300343;28;20090;-78
2021/05/08 04:34:34;;;;;;;11.83;6.20;;;1.40;99.90;;;;;;6300849;28;20417;-77
2021/05/08 04:37:36;;;;;;;9.03;5.97;;;1.50;99.90;;;;;;6309275;28;20413;-77
2021/05/08 04:40:38;;;;;;;5.77;4.80;;;1.60;99.90;;;;;;6299722;28;20068;-77
2021/05/08 04:43:41;;;;;;;7.60;5.30;;;1.70;99.90;;;;;;6299279;28;20155;-78
2021/05/08 04:46:42;;;;;;;7.50;5.73;;;1.80;99.90;;;;;;6299000;28;20059;-78
2021/05/08 04:49:43;;;;;;;4.70;4.30;;;1.90;99.90;;;;;;6298990;28;20481;-77
2021/05/08 04:52:45;;;;;;;6.07;5.47;;;2.00;99.90;;;;;;6298177;28;20135;-77
2021/05/08 04:55:47;;;;;;;6.27;4.70;;;2.20;99.90;;;;;;6296149;28;20072;-77
2021/05/08 04:58:49;;;;;;;4.70;4.30;;;2.40;99.90;;;;;;6281389;28;20556;-78
2021/05/08 05:01:50;;;;;;;5.13;4.67;;;2.50;99.90;;;;;;6273794;28;20504;-78
2021/05/08 05:04:51;;;;;;;6.63;5.07;;;2.70;99.90;;;;;;6274814;28;20067;-79
2021/05/08 05:07:53;;;;;;;9.33;5.27;;;3.00;99.90;;;;;;6274595;28;20080;-78
2021/05/08 05:10:55;;;;;;;5.20;4.80;;;3.20;99.90;;;;;;6274677;28;20052;-78
2021/05/08 05:13:57;;;;;;;4.30;3.90;;;3.40;99.90;;;;;;6274193;28;20052;-78
2021/05/08 05:16:58;;;;;;;6.67;4.93;;;3.60;99.90;;;;;;6274396;28;20075;-78
2021/05/08 05:19:59;;;;;;;5.23;3.93;;;3.80;99.90;;;;;;6273573;28;20052;-77
2021/05/08 05:23:00;;;;;;;5.20;4.47;;;4.10;99.40;;;;;;6274921;28;20130;-78
2021/05/08 05:26:03;;;;;;;7.07;4.10;;;4.30;98.70;;;;;;6273752;28;20041;-78
2021/05/08 05:29:07;;;;;;;6.50;4.25;;;4.60;98.00;;;;;;6274405;28;20413;-78
2021/05/08 05:32:08;;;;;;;7.13;4.80;;;4.80;97.40;;;;;;6274130;28;20041;-78
2021/05/08 05:35:10;;;;;;;6.32;4.72;;;5.10;97.10;;;;;;6274364;28;20529;-79
2021/05/08 05:38:12;;;;;;;5.93;5.32;;;5.50;96.00;;;;;;6275130;28;20057;-78
2021/05/08 05:41:14;;;;;;;5.47;4.63;;;6.00;94.70;;;;;;6273136;28;20132;-77
2021/05/08 05:44:15;;;;;;;4.93;4.50;;;6.30;93.70;;;;;;6273333;28;20095;-78
2021/05/08 05:47:22;;;;;;;4.40;4.00;;;6.50;93.50;;;;;;6275675;28;20126;-78
2021/05/08 05:50:25;;;;;;;5.77;5.27;;;6.80;93.00;;;;;;6272707;28;20053;-78
2021/05/08 05:53:26;;;;;;;5.50;4.05;;;7.30;91.60;;;;;;6274182;28;20128;-79
2021/05/08 05:56:29;;;;;;;5.00;4.43;;;7.60;91.00;;;;;;6275060;28;20041;-78
2021/05/08 05:59:30;;;;;;;6.38;5.03;;;8.00;90.30;;;;;;6288034;28;20160;-79
2021/05/08 06:02:33;;;;;;;5.97;4.85;;;8.20;88.80;;;;;;6274279;28;20103;-78
2021/05/08 06:05:35;;;;;;;5.47;4.78;;;8.50;87.60;;;;;;6277155;28;20508;-78
2021/05/08 06:08:36;;;;;;;5.43;4.93;;;8.80;85.00;;;;;;6291656;28;20079;-79
2021/05/08 06:11:38;;;;;;;4.75;4.35;;;9.00;82.50;;;;;;6274319;28;20052;-78
2021/05/08 06:14:40;;;;;;;5.68;5.00;;;9.20;81.20;;;;;;6291380;28;20080;-79
2021/05/08 06:17:41;;;;;;;5.13;4.63;;;9.50;79.00;;;;;;6299519;28;20053;-79
2021/05/08 06:20:42;;;;;;;4.57;4.00;;;9.70;77.80;;;;;;6300397;28;20106;-78
2021/05/08 06:23:44;;;;;;;9.48;4.95;;;10.10;76.70;;;;;;6279862;28;20071;-77
2021/05/08 06:26:46;;;;;;;8.70;6.40;;;10.50;74.80;;;;;;6276382;28;20060;-78
2021/05/08 06:29:47;;;;;;;9.82;7.40;;;10.90;72.50;;;;;;6275785;28;20104;-79
2021/05/08 06:32:49;;;;;;;6.07;4.75;;;11.10;70.80;;;;;;6274993;28;20053;-78
2021/05/08 06:35:50;;;;;;;4.32;3.92;;;11.30;67.90;;;;;;6275826;28;20709;-78
2021/05/08 06:38:51;;;;;;;4.90;4.40;;;11.50;66.60;;;;;;6285441;28;20059;-78
2021/05/08 06:41:54;;;;;;;4.97;4.43;;;11.80;65.60;;;;;;6307411;28;20049;-76
2021/05/08 06:44:55;;;;;;;5.82;4.03;;;11.90;64.10;;;;;;6305895;28;20112;-78
2021/05/08 06:48:00;;;;;;;3.72;3.42;;;12.00;64.30;;;;;;6304183;28;20083;-78
2021/05/08 06:51:01;;;;;;;4.75;3.83;;;12.30;64.10;;;;;;6302703;28;20064;-77
2021/05/08 06:54:03;;;;;;;5.35;4.28;;;12.60;63.20;;;;;;6302641;28;20055;-78
2021/05/08 06:57:06;;;;;;;4.07;3.67;;;13.00;61.40;;;;;;6303397;28;20063;-77
2021/05/08 07:00:08;;;;;;;4.28;3.97;;;13.60;59.60;;;;;;6301835;28;20074;-77
2021/05/08 07:03:10;;;;;;;4.72;4.32;;;14.00;57.60;;;;;;6304798;28;20418;-78
2021/05/08 07:06:11;;;;;;;4.18;3.80;;;14.00;57.50;;;;;;6304735;28;20067;-79
2021/05/08 07:09:12;;;;;;;5.05;4.60;;;13.80;58.60;;;;;;6304200;28;20047;-78
2021/05/08 07:12:14;;;;;;;4.80;3.95;;;13.90;57.80;;;;;;6303594;28;20510;-77
2021/05/08 07:15:16;;;;;;;6.57;4.47;;;14.10;57.20;;;;;;6305403;28;20057;-77
2021/05/08 07:18:17;;;;;;;4.97;4.45;;;14.30;57.00;;;;;;6304884;28;20098;-75
2021/05/08 07:21:18;;;;;;;3.95;3.63;;;14.50;55.90;;;;;;6303764;28;20064;-78
2021/05/08 07:24:20;;;;;;;6.80;6.18;;;14.50;56.00;;;;;;6303127;28;20114;-78
2021/05/08 07:27:22;;;;;;;3.92;3.63;;;14.50;55.10;;;;;;6303203;28;20051;-78
2021/05/08 07:30:23;;;;;;;6.20;3.72;;;14.60;54.50;;;;;;6301068;28;20049;-78
2021/05/08 07:33:25;;;;;;;5.53;5.03;;;14.60;54.20;;;;;;6303102;28;20131;-78
2021/05/08 07:36:26;;;;;;;6.75;4.03;;;14.80;54.00;;;;;;6302662;28;20513;-79
2021/05/08 07:39:27;;;;;;;10.27;4.53;;;15.10;53.20;;;;;;6302702;28;20445;-78
2021/05/08 07:42:30;;;;;;;4.82;3.60;;;15.30;52.60;;;;;;6303215;28;20530;-78
2021/05/08 07:45:32;;;;;;;4.05;3.70;;;15.40;51.80;;;;;;6302822;28;20467;-76
2021/05/08 07:48:33;;;;;;;5.07;3.95;;;15.40;50.80;;;;;;6301306;28;20701;-78
2021/05/08 07:51:34;;;;;;;5.63;4.35;;;15.40;54.60;;;;;;6302907;28;20051;-79
2021/05/08 07:54:36;;;;;;;23.52;6.20;;;15.90;54.00;;;;;;6303180;28;20510;-78
2021/05/08 07:57:38;;;;;;;8.15;3.30;;;16.40;50.20;;;;;;6302346;28;20087;-79
2021/05/08 08:00:39;;;;;;;7.43;4.65;;;16.80;51.90;;;;;;6300302;28;20119;-79
2021/05/08 08:03:41;;;;;;;4.32;3.80;;;17.40;49.80;;;;;;6301347;28;20098;-78
2021/05/08 08:06:42;;;;;;;4.82;3.67;;;17.60;46.90;;;;;;6302696;28;20413;-78
2021/05/08 08:09:44;;;;;;;3.83;3.20;;;17.70;44.80;;;;;;6302036;28;20072;-78
2021/05/08 08:12:47;;;;;;;5.65;3.85;;;17.70;45.70;;;;;;6302504;28;20560;-78
2021/05/08 08:15:49;;;;;;;5.15;3.53;;;17.80;44.80;;;;;;6305990;28;20068;-77
2021/05/08 08:18:50;;;;;;;6.43;3.40;;;18.20;43.30;;;;;;6307322;28;20048;-79
2021/05/08 08:21:51;;;;;;;4.63;3.45;;;18.30;44.90;;;;;;6305586;28;20097;-79
2021/05/08 08:24:53;;;;;;;5.45;4.38;;;18.60;43.40;;;;;;6306780;28;20131;-77
2021/05/08 08:27:55;;;;;;;4.68;3.28;;;18.70;42.30;;;;;;6307894;28;20040;-78
2021/05/08 08:30:56;;;;;;;4.70;3.90;;;18.70;43.20;;;;;;6307567;28;20045;-79
2021/05/08 08:33:58;;;;;;;4.18;3.47;;;18.90;42.80;;;;;;6309846;28;20079;-76
2021/05/08 08:36:59;;;;;;;7.40;3.60;;;18.60;42.10;;;;;;6303545;28;20438;-78
2021/05/08 08:40:01;;;;;;;4.85;4.18;;;18.60;42.70;;;;;;6304070;28;20060;-79
2021/05/08 08:43:03;;;;;;;5.70;3.33;;;18.70;41.50;;;;;;6304617;28;20048;-78
2021/05/08 08:46:05;;;;;;;2.90;2.60;;;18.60;43.50;;;;;;6303445;28;20040;-78
2021/05/08 08:49:07;;;;;;;3.80;3.20;;;18.70;43.70;;;;;;6303466;28;20068;-78
2021/05/08 08:52:10;;;;;;;5.20;2.80;;;18.90;42.60;;;;;;6302611;28;20405;-78
2021/05/08 08:55:12;;;;;;;7.65;3.95;;;18.80;43.20;;;;;;6302934;28;20139;-78
2021/05/08 08:58:14;;;;;;;8.68;3.33;;;18.70;43.40;;;;;;6302107;28;20075;-78
2021/05/08 09:01:15;;;;;;;5.20;3.40;;;18.60;43.40;;;;;;6297954;28;20048;-78
2021/05/08 09:04:18;;;;;;;7.63;3.90;;;18.50;43.60;;;;;;6300629;28;20051;-78
2021/05/08 09:07:21;;;;;;;3.92;3.50;;;18.60;43.20;;;;;;6301178;28;20179;-78
2021/05/08 09:10:24;;;;;;;2.78;2.58;;;18.80;43.40;;;;;;6299827;28;20513;-76
2021/05/08 09:13:27;;;;;;;7.65;2.97;;;18.90;42.60;;;;;;6291803;28;20077;-78
2021/05/08 09:16:29;;;;;;;3.92;2.40;;;19.20;42.20;;;;;;6275326;28;20691;-78
2021/05/08 09:19:31;;;;;;;3.13;2.83;;;19.40;43.00;;;;;;6275717;28;20053;-78
2021/05/08 09:22:34;;;;;;;3.22;2.72;;;19.50;41.50;;;;;;6276202;28;20087;-79
2021/05/08 09:25:35;;;;;;;3.92;3.15;;;19.80;40.90;;;;;;6276115;28;20206;-79
2021/05/08 09:28:38;;;;;;;3.80;2.50;;;20.10;40.80;;;;;;6277127;28;20677;-79
2021/05/08 09:31:51;;;;;;;3.70;2.72;;;20.40;40.10;;;;;;6276591;28;20458;-77
2021/05/08 09:35:04;;;;;;;6.10;2.15;;;20.80;40.40;;;;;;6275443;28;20060;-78
2021/05/08 09:38:10;;;;;;;2.25;2.05;;;21.30;39.20;;;;;;6272147;28;20110;-77
2021/05/08 09:41:13;;;;;;;3.72;2.15;;;21.60;38.80;;;;;;6272743;28;20407;-77
2021/05/08 09:44:15;;;;;;;4.05;1.83;;;22.00;37.40;;;;;;6273648;28;20119;-77
2021/05/08 09:47:27;;;;;;;4.53;2.08;;;22.30;37.50;;;;;;6272670;28;20124;-77
2021/05/08 09:50:29;;;;;;;2.40;2.10;;;22.50;37.00;;;;;;6272485;28;20423;-78
2021/05/08 09:53:32;;;;;;;4.05;1.30;;;22.70;36.50;;;;;;6272844;28;20141;-78
2021/05/08 09:56:38;;;;;;;4.97;1.73;;;23.00;35.50;;;;;;6272445;28;20068;-78
2021/05/08 09:59:42;;;;;;;3.45;1.27;;;23.20;34.10;;;;;;6272164;28;20044;-77
2021/05/08 10:02:47;;;;;;;2.50;1.23;;;23.20;33.20;;;;;;6288143;28;20098;-78
2021/05/08 10:05:50;;;;;;;2.03;1.63;;;22.90;34.00;;;;;;6297435;28;20044;-77
2021/05/08 10:08:51;;;;;;;2.17;1.30;;;22.70;33.70;;;;;;6299493;28;20044;-77
2021/05/08 10:11:52;;;;;;;2.63;1.90;;;22.50;34.50;;;;;;6302982;28;20045;-77
2021/05/08 10:14:56;;;;;;;3.40;1.10;;;22.50;34.20;;;;;;6307041;28;20131;-79
2021/05/08 10:17:58;;;;;;;2.08;1.45;;;22.60;34.40;;;;;;6305263;28;20048;-78
2021/05/08 10:21:00;;;;;;;2.92;1.45;;;22.90;33.80;;;;;;6303772;28;20079;-78
2021/05/08 10:24:01;;;;;;;1.88;1.50;;;23.00;33.40;;;;;;6302797;28;20098;-78
2021/05/08 10:27:03;;;;;;;2.63;2.00;;;22.90;33.40;;;;;;6303462;28;20052;-77
2021/05/08 10:30:09;;;;;;;2.22;1.55;;;22.70;33.00;;;;;;6301457;28;20048;-77
2021/05/08 10:33:12;;;;;;;4.35;1.50;;;22.50;33.30;;;;;;6302747;28;20072;-78
2021/05/08 10:36:47;;;;;;;1.98;1.55;;;22.40;34.10;;;;;;6302369;28;20060;-78
2021/05/08 10:39:55;;;;;;;2.63;1.40;;;22.50;34.40;;;;;;6307414;28;20551;-77
2021/05/08 10:42:56;;;;;;;3.70;1.38;;;22.40;34.50;;;;;;6305007;28;20102;-77
2021/05/08 10:45:57;;;;;;;4.45;3.20;;;22.40;33.90;;;;;;6304164;28;20075;-77
2021/05/08 10:49:18;;;;;;;4.50;1.38;;;22.30;33.30;;;;;;6302770;28;20067;-77
2021/05/08 10:52:20;;;;;;;2.13;1.40;;;22.10;33.70;;;;;;6305964;28;20047;-78
2021/05/08 10:55:22;;;;;;;2.97;1.25;;;22.10;33.80;;;;;;6304546;28;20052;-78
2021/05/08 10:58:41;;;;;;;2.13;1.38;;;22.00;33.90;;;;;;6304999;28;20124;-78
2021/05/08 11:01:44;;;;;;;2.53;1.50;;;21.90;34.00;;;;;;6304375;28;20130;-77
2021/05/08 11:05:18;;;;;;;1.80;1.30;;;22.00;33.90;;;;;;6300588;28;20049;-77
2021/05/08 11:08:43;;;;;;;2.00;1.27;;;22.10;34.40;;;;;;6304020;28;20577;-77
2021/05/08 11:11:47;;;;;;;6.45;1.20;;;22.20;34.70;;;;;;6303774;28;20520;-77
2021/05/08 11:14:54;;;;;;;2.30;1.40;;;22.20;34.10;;;;;;6301342;28;20126;-77
2021/05/08 11:18:01;;;;;;;1.40;1.27;;;22.20;33.30;;;;;;6301941;28;20045;-78
2021/05/08 11:21:23;;;;;;;1.90;1.27;;;22.10;34.00;;;;;;6302062;28;20137;-78
2021/05/08 11:24:36;;;;;;;2.55;1.35;;;22.20;34.90;;;;;;6302611;28;20052;-77
2021/05/08 11:27:38;;;;;;;1.73;1.63;;;22.40;34.50;;;;;;6306196;28;20111;-78
2021/05/08 11:30:51;;;;;;;2.25;1.10;;;22.50;34.00;;;;;;6305061;28;20152;-79
2021/05/08 11:33:53;;;;;;;2.17;1.15;;;22.50;34.10;;;;;;6304981;28;20127;-79
2021/05/08 11:36:57;;;;;;;3.88;1.25;;;22.60;33.70;;;;;;6304077;28;20051;-78
2021/05/08 11:39:59;;;;;;;6.72;1.83;;;22.70;33.20;;;;;;6301913;28;20052;-78
2021/05/08 11:43:00;;;;;;;6.40;1.30;;;22.70;32.90;;;;;;6301673;28;20135;-78
2021/05/08 11:46:02;;;;;;;3.17;1.50;;;22.60;34.00;;;;;;6299181;28;20079;-77
2021/05/08 11:49:03;;;;;;;11.60;1.80;;;22.60;34.10;;;;;;6298378;28;20131;-77
2021/05/08 11:52:07;;;;;;;1.48;1.23;;;22.50;33.80;;;;;;6298571;28;20230;-77
2021/05/08 11:55:17;;;;;;;3.75;1.55;;;22.50;33.40;;;;;;6299394;28;20753;-76
2021/05/08 11:58:25;;;;;;;16.90;3.85;;;22.60;34.00;;;;;;6299039;28;20091;-76
2021/05/08 12:01:26;;;;;;;;;;;22.70;33.60;;;;;;6299130;28;20076;-77
2021/05/08 12:04:44;;;;;;;3.30;1.52;;;22.80;33.80;;;;;;6297134;28;19971;-77
2021/05/08 12:07:45;;;;;;;1.48;1.00;;;22.90;33.60;;;;;;6299073;28;20672;-77
2021/05/08 12:10:47;;;;;;;3.22;1.23;;;22.90;32.10;;;;;;6298782;28;20052;-77
2021/05/08 12:13:49;;;;;;;4.20;1.92;;;22.90;32.60;;;;;;6297752;28;20398;-77
2021/05/08 12:16:51;;;;;;;4.05;3.50;;;23.00;32.80;;;;;;6298094;28;20070;-76
2021/05/08 12:19:53;;;;;;;1.25;0.98;;;23.00;32.60;;;;;;6297506;28;20117;-77
2021/05/08 12:22:56;;;;;;;2.25;1.10;;;23.00;33.10;;;;;;6298038;28;20048;-77
2021/05/08 12:26:13;;;;;;;1.65;1.30;;;23.00;32.40;;;;;;6297472;28;20041;-77
2021/05/08 12:29:15;;;;;;;2.15;1.65;;;23.00;33.20;;;;;;6297769;28;20093;-76
2021/05/08 12:32:16;;;;;;;4.22;1.17;;;22.90;34.00;;;;;;6297774;28;20060;-77
2021/05/08 12:35:19;;;;;;;1.92;0.85;;;22.80;32.20;;;;;;6297889;28;20088;-77
2021/05/08 12:38:27;;;;;;;1.10;1.00;;;22.70;32.50;;;;;;6297617;28;20045;-77
2021/05/08 12:41:32;;;;;;;1.95;1.00;;;22.60;33.30;;;;;;6297174;28;20123;-77
2021/05/08 12:44:36;;;;;;;3.25;1.52;;;22.50;33.70;;;;;;6299136;28;20046;-76
2021/05/08 12:47:40;;;;;;;1.63;1.48;;;22.40;33.10;;;;;;6297030;28;20078;-76
2021/05/08 12:50:42;;;;;;;5.13;1.52;;;22.30;33.60;;;;;;6296999;28;20054;-76
2021/05/08 12:53:43;;;;;;;3.10;1.15;;;22.10;34.40;;;;;;6297198;28;20044;-77
2021/05/08 12:56:46;;;;;;;1.92;1.48;;;22.20;35.00;;;;;;6297498;28;20063;-77
2021/05/08 12:59:58;;;;;;;2.97;2.22;;;22.20;34.30;;;;;;6296652;28;20518;-77
2021/05/08 13:03:00;;;;;;;2.65;1.45;;;22.30;34.70;;;;;;6297962;28;20135;-77
2021/05/08 13:06:01;;;;;;;2.92;1.10;;;22.30;35.20;;;;;;6294840;28;20521;-77
2021/05/08 13:09:03;;;;;;;2.50;1.55;;;22.40;34.60;;;;;;6297011;28;20040;-76
2021/05/08 13:12:14;;;;;;;1.60;1.20;;;22.40;35.00;;;;;;6298983;28;20549;-76
2021/05/08 13:15:18;;;;;;;2.90;1.25;;;22.40;34.60;;;;;;6299306;28;20132;-77
2021/05/08 13:18:20;;;;;;;2.33;1.08;;;22.30;34.80;;;;;;6298425;28;20041;-77
2021/05/08 13:21:21;;;;;;;2.88;1.58;;;22.30;34.90;;;;;;6297928;28;20040;-77
2021/05/08 13:24:26;;;;;;;3.72;1.20;;;22.40;34.60;;;;;;6300560;28;20076;-77
2021/05/08 13:27:28;;;;;;;2.88;1.50;;;22.50;35.10;;;;;;6303901;28;20604;-78
2021/05/08 13:30:30;;;;;;;1.38;1.27;;;22.40;34.90;;;;;;6303602;28;20449;-76
2021/05/08 13:33:31;;;;;;;2.17;1.27;;;22.30;34.80;;;;;;6301416;28;20394;-76
2021/05/08 13:36:33;;;;;;;1.73;1.13;;;22.10;35.10;;;;;;6301920;28;20472;-78
2021/05/08 13:39:34;;;;;;;1.83;1.52;;;22.00;36.00;;;;;;6298453;28;20123;-75
2021/05/08 13:42:37;;;;;;;2.30;1.33;;;22.10;36.20;;;;;;6295927;28;20484;-76
2021/05/08 13:45:38;;;;;;;1.10;1.00;;;22.20;35.70;;;;;;6295707;28;20553;-75
2021/05/08 13:48:39;;;;;;;1.20;1.10;;;22.20;34.90;;;;;;6299906;28;20098;-78
2021/05/08 13:51:40;;;;;;;3.40;1.17;;;22.30;35.10;;;;;;6299512;28;20049;-77
2021/05/08 13:54:42;;;;;;;2.22;1.45;;;22.40;34.90;;;;;;6298210;28;20557;-77
2021/05/08 13:57:44;;;;;;;1.75;1.33;;;22.40;35.50;;;;;;6296252;28;20135;-77
2021/05/08 14:00:45;;;;;;;3.42;1.02;;;22.40;35.90;;;;;;6295745;28;20040;-78
2021/05/08 14:03:47;;;;;;;5.35;1.58;;;22.40;35.00;;;;;;6301002;28;20050;-77
2021/05/08 14:06:49;;;;;;;2.30;1.55;;;22.20;35.80;;;;;;6298460;28;20044;-77
2021/05/08 14:09:53;;;;;;;3.70;1.38;;;22.20;36.40;;;;;;6295846;28;20417;-76
2021/05/08 14:12:55;;;;;;;1.70;1.05;;;22.30;34.90;;;;;;6295718;28;20120;-77
2021/05/08 14:15:56;;;;;;;3.17;1.20;;;22.30;34.60;;;;;;6295877;28;20510;-76
2021/05/08 14:18:57;;;;;;;2.47;0.93;;;22.30;35.50;;;;;;6296307;28;20143;-76
2021/05/08 14:21:59;;;;;;;5.85;2.13;;;22.50;35.40;;;;;;6296673;28;20068;-76
2021/05/08 14:25:00;;;;;;;1.20;1.10;;;22.60;34.80;;;;;;6297873;28;20147;-76
2021/05/08 14:28:02;;;;;;;1.35;0.90;;;22.70;35.20;;;;;;6297533;28;20060;-76
2021/05/08 14:31:04;;;;;;;5.00;1.10;;;22.70;34.30;;;;;;6299708;28;20048;-76
2021/05/08 14:34:05;;;;;;;2.08;1.88;;;22.60;34.70;;;;;;6299856;28;20044;-78
2021/05/08 14:37:07;;;;;;;1.77;1.67;;;22.50;35.60;;;;;;6297626;28;20149;-77
2021/05/08 14:40:09;;;;;;;2.38;0.60;;;22.50;35.40;;;;;;6297416;28;20490;-76
2021/05/08 14:43:11;;;;;;;2.00;1.33;;;22.50;35.60;;;;;;6297913;28;20056;-77
2021/05/08 14:46:13;;;;;;;4.72;1.10;;;22.50;34.90;;;;;;6297320;28;20135;-77
2021/05/08 14:49:14;;;;;;;2.53;0.82;;;22.40;35.00;;;;;;6297052;28;20465;-77
2021/05/08 14:52:15;;;;;;;2.38;1.30;;;22.30;35.70;;;;;;6298429;28;20178;-77
2021/05/08 14:55:17;;;;;;;1.27;1.08;;;22.20;36.30;;;;;;6300350;28;20129;-76
2021/05/08 14:58:19;;;;;;;1.80;0.75;;;22.20;35.80;;;;;;6303945;28;20072;-77
2021/05/08 15:01:21;;;;;;;7.68;1.88;;;22.10;36.30;;;;;;6306435;28;20136;-79
2021/05/08 15:04:22;;;;;;;1.23;1.05;;;22.10;37.00;;;;;;6303923;28;20072;-77
2021/05/08 15:07:23;;;;;;;1.20;0.90;;;22.00;36.30;;;;;;6304297;28;20130;-77
2021/05/08 15:10:26;;;;;;;3.03;0.93;;;21.90;36.40;;;;;;6305512;28;20048;-78
2021/05/08 15:13:28;;;;;;;1.73;1.08;;;21.90;36.70;;;;;;6304932;28;20042;-78
2021/05/08 15:16:30;;;;;;;1.40;0.93;;;21.90;36.80;;;;;;6305369;28;20040;-76
2021/05/08 15:19:31;;;;;;;3.42;1.23;;;21.80;37.00;;;;;;6304059;28;20056;-78
2021/05/08 15:22:32;;;;;;;1.65;1.13;;;21.80;37.10;;;;;;6305946;28;20119;-77
2021/05/08 15:25:34;;;;;;;2.33;1.92;;;21.70;37.10;;;;;;6307535;28;20071;-78
2021/05/08 15:28:36;;;;;;;1.75;1.02;;;21.70;37.90;;;;;;6306438;28;20075;-77
2021/05/08 15:31:37;;;;;;;1.80;0.82;;;21.70;37.30;;;;;;6298823;22;20103;-77
2021/05/08 15:34:39;;;;;;;1.08;0.80;;;21.80;37.20;;;;;;6250085;28;20076;-77
2021/05/08 15:37:41;;;;;;;3.03;1.33;;;21.80;37.00;;;;;;6249669;28;20146;-78
2021/05/08 15:40:43;;;;;;;2.50;1.00;;;21.80;37.60;;;;;;6249239;28;20118;-77
2021/05/08 15:43:45;;;;;;;3.05;1.48;;;21.70;37.40;;;;;;6249036;28;20132;-77
2021/05/08 15:46:46;;;;;;;1.02;0.93;;;21.50;37.60;;;;;;6273018;28;20494;-77
2021/05/08 15:49:52;;;;;;;1.38;0.93;;;21.30;38.20;;;;;;6273673;28;20055;-77
2021/05/08 15:52:53;;;;;;;1.67;1.33;;;21.20;38.10;;;;;;6272915;28;20081;-77
2021/05/08 15:55:54;;;;;;;3.78;1.20;;;21.10;38.90;;;;;;6273514;28;20466;-78